sensor_id;sensor_type;location;lat;lon;timestamp;pressure;altitude;pressure_sealevel;temperature;humidity
39363;BME280;25088;43.238;23.110;2022-11-04T00:02:02;96587.06;;;12.70;73.00
39363;BME280;25088;43.238;23.110;2022-11-04T00:04:28;96590.91;;;12.69;72.96
39363;BME280;25088;43.238;23.110;2022-11-04T00:06:55;96583.22;;;12.71;73.28
39363;BME280;25088;43.238;23.110;2022-11-04T00:09:23;96578.06;;;12.80;73.02
39363;BME280;25088;43.238;23.110;2022-11-04T00:11:49;96569.53;;;12.76;72.76
39363;BME280;25088;43.238;23.110;2022-11-04T00:14:34;96569.63;;;13.02;71.65
39363;BME280;25088;43.238;23.110;2022-11-04T00:17:01;96576.97;;;12.86;72.69
39363;BME280;25088;43.238;23.110;2022-11-04T00:19:51;96552.91;;;12.98;72.13
39363;BME280;25088;43.238;23.110;2022-11-04T00:22:36;96581.38;;;12.97;72.88
39363;BME280;25088;43.238;23.110;2022-11-04T00:25:20;96560.28;;;12.98;72.44
39363;BME280;25088;43.238;23.110;2022-11-04T00:28:26;96576.19;;;12.96;73.07
39363;BME280;25088;43.238;23.110;2022-11-04T00:31:08;96571.25;;;12.98;73.28
39363;BME280;25088;43.238;23.110;2022-11-04T00:33:53;96552.94;;;13.13;71.89
39363;BME280;25088;43.238;23.110;2022-11-04T00:36:20;96564.66;;;12.88;72.51
39363;BME280;25088;43.238;23.110;2022-11-04T00:38:47;96550.19;;;13.03;72.58
39363;BME280;25088;43.238;23.110;2022-11-04T00:41:12;96553.75;;;12.99;72.76
39363;BME280;25088;43.238;23.110;2022-11-04T00:43:53;96540.06;;;13.09;71.88
39363;BME280;25088;43.238;23.110;2022-11-04T00:46:20;96555.72;;;13.24;70.99
39363;BME280;25088;43.238;23.110;2022-11-04T00:48:45;96558.13;;;13.00;71.84
39363;BME280;25088;43.238;23.110;2022-11-04T00:51:11;96545.88;;;13.28;70.92
39363;BME280;25088;43.238;23.110;2022-11-04T00:53:36;96539.00;;;13.35;70.64
39363;BME280;25088;43.238;23.110;2022-11-04T00:56:02;96541.06;;;12.87;73.14
39363;BME280;25088;43.238;23.110;2022-11-04T00:58:28;96521.38;;;13.01;72.14
39363;BME280;25088;43.238;23.110;2022-11-04T01:00:53;96529.69;;;13.26;71.16
39363;BME280;25088;43.238;23.110;2022-11-04T01:03:18;96527.19;;;13.14;72.16
39363;BME280;25088;43.238;23.110;2022-11-04T01:05:44;96518.13;;;13.14;70.92
39363;BME280;25088;43.238;23.110;2022-11-04T01:08:09;96522.50;;;13.05;71.91
39363;BME280;25088;43.238;23.110;2022-11-04T01:10:35;96501.91;;;12.92;73.61
39363;BME280;25088;43.238;23.110;2022-11-04T01:13:11;96527.16;;;12.99;72.21
39363;BME280;25088;43.238;23.110;2022-11-04T01:15:37;96525.44;;;12.83;71.95
39363;BME280;25088;43.238;23.110;2022-11-04T01:18:04;96517.53;;;12.86;72.54
39363;BME280;25088;43.238;23.110;2022-11-04T01:20:31;96524.06;;;12.75;73.64
39363;BME280;25088;43.238;23.110;2022-11-04T01:22:56;96513.09;;;12.70;73.56
39363;BME280;25088;43.238;23.110;2022-11-04T01:25:22;96505.75;;;12.91;72.40
39363;BME280;25088;43.238;23.110;2022-11-04T01:27:47;96499.41;;;12.70;74.13
39363;BME280;25088;43.238;23.110;2022-11-04T01:30:13;96511.47;;;12.74;73.70
39363;BME280;25088;43.238;23.110;2022-11-04T01:32:38;96503.25;;;12.74;73.97
39363;BME280;25088;43.238;23.110;2022-11-04T01:35:04;96496.41;;;12.82;73.53
39363;BME280;25088;43.238;23.110;2022-11-04T01:37:29;96482.69;;;12.72;73.82
39363;BME280;25088;43.238;23.110;2022-11-04T01:39:55;96501.84;;;12.66;73.73
39363;BME280;25088;43.238;23.110;2022-11-04T01:42:21;96487.94;;;12.78;73.26
39363;BME280;25088;43.238;23.110;2022-11-04T01:44:58;96486.81;;;12.74;74.62
39363;BME280;25088;43.238;23.110;2022-11-04T01:50:06;96481.56;;;12.62;74.61
39363;BME280;25088;43.238;23.110;2022-11-04T01:52:47;96495.78;;;12.49;74.93
39363;BME280;25088;43.238;23.110;2022-11-04T01:55:18;96487.91;;;12.73;74.42
39363;BME280;25088;43.238;23.110;2022-11-04T01:57:46;96499.06;;;12.46;74.31
39363;BME280;25088;43.238;23.110;2022-11-04T02:00:13;96481.53;;;12.47;74.50
39363;BME280;25088;43.238;23.110;2022-11-04T02:02:56;96481.84;;;12.61;74.74
39363;BME280;25088;43.238;23.110;2022-11-04T02:05:23;96499.00;;;12.36;75.57
39363;BME280;25088;43.238;23.110;2022-11-04T02:07:50;96457.06;;;12.20;75.53
39363;BME280;25088;43.238;23.110;2022-11-04T02:10:19;96476.75;;;12.17;77.08
39363;BME280;25088;43.238;23.110;2022-11-04T02:12:47;96477.94;;;12.36;76.44
39363;BME280;25088;43.238;23.110;2022-11-04T02:15:24;96482.84;;;12.29;77.02
39363;BME280;25088;43.238;23.110;2022-11-04T02:20:47;96483.84;;;12.13;76.69
39363;BME280;25088;43.238;23.110;2022-11-04T02:32:13;96479.97;;;11.99;81.13
39363;BME280;25088;43.238;23.110;2022-11-04T02:37:46;96475.66;;;11.71;80.05
39363;BME280;25088;43.238;23.110;2022-11-04T02:40:21;96470.44;;;11.64;80.54
39363;BME280;25088;43.238;23.110;2022-11-04T02:42:54;96478.81;;;11.84;80.00
39363;BME280;25088;43.238;23.110;2022-11-04T02:45:24;96473.69;;;11.61;81.00
39363;BME280;25088;43.238;23.110;2022-11-04T02:47:57;96467.69;;;11.59;80.96
39363;BME280;25088;43.238;23.110;2022-11-04T02:50:38;96474.72;;;11.50;82.79
39363;BME280;25088;43.238;23.110;2022-11-04T02:53:17;96456.25;;;11.72;81.18
39363;BME280;25088;43.238;23.110;2022-11-04T02:55:48;96461.44;;;11.69;78.42
39363;BME280;25088;43.238;23.110;2022-11-04T02:58:20;96458.91;;;11.57;80.84
39363;BME280;25088;43.238;23.110;2022-11-04T03:00:48;96461.69;;;11.67;81.14
39363;BME280;25088;43.238;23.110;2022-11-04T03:03:23;96464.44;;;11.67;82.88
39363;BME280;25088;43.238;23.110;2022-11-04T03:05:52;96411.00;;;11.44;80.95
39363;BME280;25088;43.238;23.110;2022-11-04T03:08:26;96452.06;;;11.54;82.15
39363;BME280;25088;43.238;23.110;2022-11-04T03:11:02;96455.06;;;11.58;80.82
39363;BME280;25088;43.238;23.110;2022-11-04T03:14:03;96459.97;;;11.51;80.61
39363;BME280;25088;43.238;23.110;2022-11-04T03:16:38;96451.09;;;11.38;83.18
39363;BME280;25088;43.238;23.110;2022-11-04T03:21:58;96455.78;;;11.43;81.33
39363;BME280;25088;43.238;23.110;2022-11-04T03:24:25;96461.38;;;11.21;83.00
39363;BME280;25088;43.238;23.110;2022-11-04T03:26:58;96455.94;;;11.26;83.50
39363;BME280;25088;43.238;23.110;2022-11-04T03:29:25;96469.84;;;11.20;84.24
39363;BME280;25088;43.238;23.110;2022-11-04T03:34:29;96452.97;;;10.96;84.44
39363;BME280;25088;43.238;23.110;2022-11-04T03:36:56;96462.53;;;10.98;83.99
39363;BME280;25088;43.238;23.110;2022-11-04T03:39:21;96459.13;;;10.81;86.07
39363;BME280;25088;43.238;23.110;2022-11-04T03:41:54;96454.66;;;11.02;84.55
39363;BME280;25088;43.238;23.110;2022-11-04T03:44:20;96455.81;;;10.79;86.76
39363;BME280;25088;43.238;23.110;2022-11-04T03:46:50;96446.06;;;10.88;85.58
39363;BME280;25088;43.238;23.110;2022-11-04T03:49:17;96411.44;;;10.61;86.79
39363;BME280;25088;43.238;23.110;2022-11-04T03:51:43;96437.97;;;10.98;86.61
39363;BME280;25088;43.238;23.110;2022-11-04T03:54:08;96436.09;;;11.04;85.27
39363;BME280;25088;43.238;23.110;2022-11-04T04:00:08;96446.84;;;10.83;88.30
39363;BME280;25088;43.238;23.110;2022-11-04T04:02:40;96448.50;;;10.84;88.49
39363;BME280;25088;43.238;23.110;2022-11-04T04:05:47;96439.88;;;10.98;87.49
39363;BME280;25088;43.238;23.110;2022-11-04T04:08:19;96432.13;;;10.84;88.82
39363;BME280;25088;43.238;23.110;2022-11-04T04:16:29;96445.81;;;10.90;87.09
39363;BME280;25088;43.238;23.110;2022-11-04T04:19:00;96434.13;;;10.94;87.24
39363;BME280;25088;43.238;23.110;2022-11-04T04:21:43;96443.41;;;10.98;88.57
39363;BME280;25088;43.238;23.110;2022-11-04T04:24:12;96412.13;;;11.11;86.54
39363;BME280;25088;43.238;23.110;2022-11-04T04:26:58;96421.41;;;10.78;87.27
39363;BME280;25088;43.238;23.110;2022-11-04T04:29:44;96437.56;;;11.17;85.45
39363;BME280;25088;43.238;23.110;2022-11-04T04:32:11;96444.63;;;11.12;85.37
39363;BME280;25088;43.238;23.110;2022-11-04T04:34:37;96446.03;;;11.15;86.43
39363;BME280;25088;43.238;23.110;2022-11-04T04:37:18;96433.63;;;11.02;86.27
39363;BME280;25088;43.238;23.110;2022-11-04T04:40:05;96450.38;;;11.11;84.92
39363;BME280;25088;43.238;23.110;2022-11-04T04:42:52;96444.44;;;10.87;88.65
39363;BME280;25088;43.238;23.110;2022-11-04T04:45:39;96443.91;;;10.90;86.32
39363;BME280;25088;43.238;23.110;2022-11-04T04:48:08;96449.34;;;10.85;88.88
39363;BME280;25088;43.238;23.110;2022-11-04T04:50:45;96454.25;;;10.88;89.42
39363;BME280;25088;43.238;23.110;2022-11-04T04:53:12;96454.09;;;11.00;87.66
39363;BME280;25088;43.238;23.110;2022-11-04T04:55:45;96447.66;;;10.84;88.13
39363;BME280;25088;43.238;23.110;2022-11-04T04:58:11;96449.03;;;10.81;86.99
39363;BME280;25088;43.238;23.110;2022-11-04T05:00:36;96422.56;;;10.55;87.54
39363;BME280;25088;43.238;23.110;2022-11-04T05:03:02;96439.13;;;10.75;87.93
39363;BME280;25088;43.238;23.110;2022-11-04T05:05:27;96444.03;;;10.73;88.36
39363;BME280;25088;43.238;23.110;2022-11-04T05:07:53;96443.56;;;10.81;88.95
39363;BME280;25088;43.238;23.110;2022-11-04T05:10:18;96445.56;;;10.91;89.25
39363;BME280;25088;43.238;23.110;2022-11-04T05:12:44;96433.78;;;10.85;88.66
39363;BME280;25088;43.238;23.110;2022-11-04T05:15:29;96449.28;;;10.80;89.24
39363;BME280;25088;43.238;23.110;2022-11-04T05:17:57;96439.97;;;10.76;88.54
39363;BME280;25088;43.238;23.110;2022-11-04T05:20:24;96452.31;;;10.83;89.24
39363;BME280;25088;43.238;23.110;2022-11-04T05:22:50;96449.66;;;10.94;89.10
39363;BME280;25088;43.238;23.110;2022-11-04T05:25:16;96436.59;;;10.96;87.83
39363;BME280;25088;43.238;23.110;2022-11-04T05:27:41;96454.03;;;10.90;87.00
39363;BME280;25088;43.238;23.110;2022-11-04T05:30:07;96453.81;;;10.96;85.73
39363;BME280;25088;43.238;23.110;2022-11-04T05:32:33;96438.91;;;10.82;86.82
39363;BME280;25088;43.238;23.110;2022-11-04T05:34:59;96423.56;;;11.08;85.80
39363;BME280;25088;43.238;23.110;2022-11-04T05:37:25;96467.69;;;11.27;85.06
39363;BME280;25088;43.238;23.110;2022-11-04T05:39:51;96431.28;;;11.58;83.05
39363;BME280;25088;43.238;23.110;2022-11-04T05:42:16;96431.56;;;11.99;80.90
39363;BME280;25088;43.238;23.110;2022-11-04T05:44:42;96451.56;;;12.10;77.70
39363;BME280;25088;43.238;23.110;2022-11-04T05:47:07;96430.22;;;12.17;77.53
39363;BME280;25088;43.238;23.110;2022-11-04T05:49:33;96463.81;;;12.80;76.00
39363;BME280;25088;43.238;23.110;2022-11-04T05:51:58;96453.09;;;12.58;74.02
39363;BME280;25088;43.238;23.110;2022-11-04T05:54:24;96437.53;;;12.89;73.51
39363;BME280;25088;43.238;23.110;2022-11-04T05:56:50;96440.28;;;13.40;71.44
39363;BME280;25088;43.238;23.110;2022-11-04T05:59:16;96454.84;;;13.31;72.45
39363;BME280;25088;43.238;23.110;2022-11-04T06:01:41;96450.97;;;13.42;69.31
39363;BME280;25088;43.238;23.110;2022-11-04T06:04:14;96427.34;;;13.71;68.39
39363;BME280;25088;43.238;23.110;2022-11-04T06:06:40;96449.19;;;14.17;66.81
39363;BME280;25088;43.238;23.110;2022-11-04T06:09:06;96460.88;;;14.43;64.25
39363;BME280;25088;43.238;23.110;2022-11-04T06:11:33;96457.44;;;14.77;64.14
39363;BME280;25088;43.238;23.110;2022-11-04T06:13:59;96452.41;;;15.23;63.72
39363;BME280;25088;43.238;23.110;2022-11-04T06:16:25;96449.53;;;15.73;60.95
39363;BME280;25088;43.238;23.110;2022-11-04T06:18:51;96454.69;;;15.80;59.04
39363;BME280;25088;43.238;23.110;2022-11-04T06:21:25;96444.03;;;16.21;58.21
39363;BME280;25088;43.238;23.110;2022-11-04T06:23:53;96437.63;;;16.49;58.07
39363;BME280;25088;43.238;23.110;2022-11-04T06:26:20;96449.00;;;16.86;56.63
39363;BME280;25088;43.238;23.110;2022-11-04T06:28:46;96439.41;;;17.21;54.90
39363;BME280;25088;43.238;23.110;2022-11-04T06:31:12;96438.56;;;17.53;54.61
39363;BME280;25088;43.238;23.110;2022-11-04T06:33:38;96432.19;;;17.71;53.33
39363;BME280;25088;43.238;23.110;2022-11-04T06:36:06;96426.72;;;18.13;51.76
39363;BME280;25088;43.238;23.110;2022-11-04T06:38:33;96423.88;;;18.31;51.30
39363;BME280;25088;43.238;23.110;2022-11-04T06:40:59;96428.44;;;18.64;50.86
39363;BME280;25088;43.238;23.110;2022-11-04T06:43:24;96416.22;;;18.92;49.76
39363;BME280;25088;43.238;23.110;2022-11-04T06:45:58;96418.41;;;18.68;50.47
39363;BME280;25088;43.238;23.110;2022-11-04T06:48:25;96415.44;;;18.78;50.08
39363;BME280;25088;43.238;23.110;2022-11-04T06:50:52;96423.38;;;18.93;49.32
39363;BME280;25088;43.238;23.110;2022-11-04T06:53:17;96422.31;;;19.03;49.06
39363;BME280;25088;43.238;23.110;2022-11-04T06:55:44;96421.97;;;19.18;49.12
39363;BME280;25088;43.238;23.110;2022-11-04T06:58:09;96422.84;;;19.27;48.47
39363;BME280;25088;43.238;23.110;2022-11-04T07:00:35;96405.09;;;19.51;48.08
39363;BME280;25088;43.238;23.110;2022-11-04T07:03:01;96406.38;;;19.67;48.37
39363;BME280;25088;43.238;23.110;2022-11-04T07:05:26;96405.88;;;19.96;47.31
39363;BME280;25088;43.238;23.110;2022-11-04T07:07:52;96395.28;;;19.98;47.38
39363;BME280;25088;43.238;23.110;2022-11-04T07:10:17;96406.81;;;20.31;46.43
39363;BME280;25088;43.238;23.110;2022-11-04T07:12:43;96369.00;;;20.35;46.29
39363;BME280;25088;43.238;23.110;2022-11-04T07:15:09;96404.53;;;20.33;46.56
39363;BME280;25088;43.238;23.110;2022-11-04T07:17:35;96382.25;;;20.47;46.18
39363;BME280;25088;43.238;23.110;2022-11-04T07:20:01;96383.94;;;20.83;45.06
39363;BME280;25088;43.238;23.110;2022-11-04T07:22:27;96374.50;;;21.01;45.18
39363;BME280;25088;43.238;23.110;2022-11-04T07:24:52;96387.91;;;21.34;44.51
39363;BME280;25088;43.238;23.110;2022-11-04T07:27:18;96373.34;;;21.46;43.79
39363;BME280;25088;43.238;23.110;2022-11-04T07:29:43;96355.88;;;21.10;44.67
39363;BME280;25088;43.238;23.110;2022-11-04T07:32:09;96367.16;;;21.40;44.39
39363;BME280;25088;43.238;23.110;2022-11-04T07:34:34;96360.91;;;21.52;43.94
39363;BME280;25088;43.238;23.110;2022-11-04T07:36:59;96360.25;;;21.55;43.48
39363;BME280;25088;43.238;23.110;2022-11-04T07:39:25;96364.44;;;21.78;43.54
39363;BME280;25088;43.238;23.110;2022-11-04T07:41:50;96355.03;;;22.00;43.16
39363;BME280;25088;43.238;23.110;2022-11-04T07:44:16;96348.16;;;21.98;43.28
39363;BME280;25088;43.238;23.110;2022-11-04T07:46:41;96336.22;;;21.97;42.81
39363;BME280;25088;43.238;23.110;2022-11-04T07:49:07;96334.41;;;22.01;42.84
39363;BME280;25088;43.238;23.110;2022-11-04T07:51:33;96350.28;;;22.39;42.43
39363;BME280;25088;43.238;23.110;2022-11-04T07:53:58;96345.84;;;22.67;41.72
39363;BME280;25088;43.238;23.110;2022-11-04T07:56:24;96345.38;;;22.65;41.92
39363;BME280;25088;43.238;23.110;2022-11-04T07:58:50;96334.84;;;22.71;42.44
39363;BME280;25088;43.238;23.110;2022-11-04T08:01:19;96331.78;;;22.93;41.42
39363;BME280;25088;43.238;23.110;2022-11-04T08:03:44;96330.66;;;22.86;41.71
39363;BME280;25088;43.238;23.110;2022-11-04T08:06:13;96337.78;;;23.16;41.01
39363;BME280;25088;43.238;23.110;2022-11-04T08:08:39;96326.22;;;23.27;40.97
39363;BME280;25088;43.238;23.110;2022-11-04T08:11:12;96312.63;;;23.25;41.38
39363;BME280;25088;43.238;23.110;2022-11-04T08:13:38;96316.53;;;23.45;40.57
39363;BME280;25088;43.238;23.110;2022-11-04T08:16:10;96307.81;;;23.67;40.23
39363;BME280;25088;43.238;23.110;2022-11-04T08:18:40;96303.22;;;23.63;40.56
39363;BME280;25088;43.238;23.110;2022-11-04T08:21:06;96315.38;;;23.79;39.84
39363;BME280;25088;43.238;23.110;2022-11-04T08:23:32;96298.59;;;23.67;40.17
39363;BME280;25088;43.238;23.110;2022-11-04T08:25:58;96300.88;;;23.98;39.76
39363;BME280;25088;43.238;23.110;2022-11-04T08:28:24;96301.78;;;24.14;39.53
39363;BME280;25088;43.238;23.110;2022-11-04T08:30:59;96302.50;;;24.36;39.01
39363;BME280;25088;43.238;23.110;2022-11-04T08:33:27;96294.69;;;24.41;39.07
39363;BME280;25088;43.238;23.110;2022-11-04T08:35:54;96291.09;;;24.53;38.78
39363;BME280;25088;43.238;23.110;2022-11-04T08:38:20;96294.13;;;24.48;38.81
39363;BME280;25088;43.238;23.110;2022-11-04T08:40:46;96288.81;;;24.83;38.36
39363;BME280;25088;43.238;23.110;2022-11-04T08:43:12;96279.56;;;25.07;37.95
39363;BME280;25088;43.238;23.110;2022-11-04T08:45:39;96287.44;;;25.17;37.77
39363;BME280;25088;43.238;23.110;2022-11-04T08:48:05;96275.03;;;24.90;38.04
39363;BME280;25088;43.238;23.110;2022-11-04T08:50:31;96278.94;;;25.14;37.46
39363;BME280;25088;43.238;23.110;2022-11-04T08:52:56;96291.84;;;25.06;38.04
39363;BME280;25088;43.238;23.110;2022-11-04T08:55:22;96283.91;;;24.80;38.17
39363;BME280;25088;43.238;23.110;2022-11-04T08:57:48;96264.94;;;24.86;37.74
39363;BME280;25088;43.238;23.110;2022-11-04T09:00:14;96288.09;;;25.26;37.62
39363;BME280;25088;43.238;23.110;2022-11-04T09:02:41;96278.13;;;25.41;37.01
39363;BME280;25088;43.238;23.110;2022-11-04T09:05:06;96278.75;;;25.50;36.97
39363;BME280;25088;43.238;23.110;2022-11-04T09:07:32;96289.47;;;25.48;36.62
39363;BME280;25088;43.238;23.110;2022-11-04T09:09:59;96261.44;;;25.61;36.58
39363;BME280;25088;43.238;23.110;2022-11-04T09:12:26;96263.19;;;25.97;36.01
39363;BME280;25088;43.238;23.110;2022-11-04T09:14:52;96273.91;;;26.26;35.29
39363;BME280;25088;43.238;23.110;2022-11-04T09:17:18;96271.38;;;26.06;35.90
39363;BME280;25088;43.238;23.110;2022-11-04T09:19:43;96270.88;;;25.84;36.43
39363;BME280;25088;43.238;23.110;2022-11-04T09:22:09;96273.03;;;25.75;36.51
39363;BME280;25088;43.238;23.110;2022-11-04T09:24:34;96265.34;;;26.03;36.19
39363;BME280;25088;43.238;23.110;2022-11-04T09:26:59;96258.44;;;25.82;36.03
39363;BME280;25088;43.238;23.110;2022-11-04T09:29:25;96274.97;;;25.15;37.54
39363;BME280;25088;43.238;23.110;2022-11-04T09:31:50;96274.47;;;24.85;37.59
39363;BME280;25088;43.238;23.110;2022-11-04T09:34:16;96275.22;;;25.10;37.49
39363;BME280;25088;43.238;23.110;2022-11-04T09:36:42;96271.56;;;24.53;38.15
39363;BME280;25088;43.238;23.110;2022-11-04T09:39:09;96253.06;;;24.48;38.59
39363;BME280;25088;43.238;23.110;2022-11-04T09:47:03;96260.06;;;24.83;38.29
39363;BME280;25088;43.238;23.110;2022-11-04T09:49:33;96251.53;;;25.47;36.98
39363;BME280;25088;43.238;23.110;2022-11-04T09:52:02;96253.06;;;26.08;35.78
39363;BME280;25088;43.238;23.110;2022-11-04T09:54:41;96253.06;;;26.59;35.69
39363;BME280;25088;43.238;23.110;2022-11-04T09:57:15;96256.25;;;26.58;35.10
39363;BME280;25088;43.238;23.110;2022-11-04T09:59:41;96249.91;;;26.80;35.08
39363;BME280;25088;43.238;23.110;2022-11-04T10:10:25;96235.59;;;27.20;33.66
39363;BME280;25088;43.238;23.110;2022-11-04T10:13:10;96231.38;;;27.53;33.47
39363;BME280;25088;43.238;23.110;2022-11-04T10:29:43;96196.81;;;27.91;32.60
39363;BME280;25088;43.238;23.110;2022-11-04T10:34:43;96177.00;;;28.07;32.21
39363;BME280;25088;43.238;23.110;2022-11-04T10:37:11;96190.38;;;28.17;32.38
39363;BME280;25088;43.238;23.110;2022-11-04T10:39:44;96182.00;;;28.47;32.01
39363;BME280;25088;43.238;23.110;2022-11-04T10:42:16;96172.28;;;28.71;31.89
39363;BME280;25088;43.238;23.110;2022-11-04T10:44:44;96175.13;;;28.41;31.70
39363;BME280;25088;43.238;23.110;2022-11-04T10:52:36;96154.03;;;28.54;31.64
39363;BME280;25088;43.238;23.110;2022-11-04T10:55:13;96164.81;;;27.96;32.47
39363;BME280;25088;43.238;23.110;2022-11-04T10:57:40;96155.63;;;27.99;32.49
39363;BME280;25088;43.238;23.110;2022-11-04T11:00:06;96145.13;;;28.22;32.07
39363;BME280;25088;43.238;23.110;2022-11-04T11:02:42;96153.13;;;28.47;31.75
39363;BME280;25088;43.238;23.110;2022-11-04T11:07:44;96150.94;;;27.11;33.51
39363;BME280;25088;43.238;23.110;2022-11-04T11:10:28;96152.75;;;26.61;34.34
39363;BME280;25088;43.238;23.110;2022-11-04T11:13:02;96156.50;;;26.14;35.13
39363;BME280;25088;43.238;23.110;2022-11-04T11:15:34;96150.44;;;25.30;36.29
39363;BME280;25088;43.238;23.110;2022-11-04T11:18:18;96151.44;;;24.49;37.89
39363;BME280;25088;43.238;23.110;2022-11-04T11:21:08;96154.56;;;24.08;38.69
39363;BME280;25088;43.238;23.110;2022-11-04T11:23:38;96153.59;;;23.63;39.45
39363;BME280;25088;43.238;23.110;2022-11-04T11:26:06;96149.72;;;23.19;40.19
39363;BME280;25088;43.238;23.110;2022-11-04T11:28:33;96141.53;;;22.89;41.07
39363;BME280;25088;43.238;23.110;2022-11-04T11:31:05;96150.16;;;22.76;41.69
39363;BME280;25088;43.238;23.110;2022-11-04T11:33:37;96136.88;;;22.48;41.76
39363;BME280;25088;43.238;23.110;2022-11-04T11:39:15;96153.59;;;22.60;42.26
39363;BME280;25088;43.238;23.110;2022-11-04T11:44:27;96156.75;;;22.38;42.58
39363;BME280;25088;43.238;23.110;2022-11-04T11:47:06;96158.19;;;22.23;42.88
39363;BME280;25088;43.238;23.110;2022-11-04T11:49:36;96145.53;;;22.47;42.83
39363;BME280;25088;43.238;23.110;2022-11-04T11:54:48;96131.94;;;24.65;38.84
39363;BME280;25088;43.238;23.110;2022-11-04T12:00:12;96115.94;;;25.22;37.63
39363;BME280;25088;43.238;23.110;2022-11-04T12:02:54;96120.66;;;24.90;37.83
39363;BME280;25088;43.238;23.110;2022-11-04T12:05:32;96109.63;;;23.97;39.01
39363;BME280;25088;43.238;23.110;2022-11-04T12:10:57;96112.69;;;23.43;40.38
39363;BME280;25088;43.238;23.110;2022-11-04T12:13:31;96122.28;;;22.96;41.18
39363;BME280;25088;43.238;23.110;2022-11-04T12:21:54;96114.09;;;24.54;38.84
39363;BME280;25088;43.238;23.110;2022-11-04T12:24:46;96113.69;;;25.12;37.91
39363;BME280;25088;43.238;23.110;2022-11-04T12:43:13;96101.34;;;22.78;41.42
39363;BME280;25088;43.238;23.110;2022-11-04T12:46:03;96117.34;;;22.36;42.25
39363;BME280;25088;43.238;23.110;2022-11-04T12:51:50;96112.91;;;21.72;43.48
39363;BME280;25088;43.238;23.110;2022-11-04T12:59:48;96102.22;;;20.94;45.25
39363;BME280;25088;43.238;23.110;2022-11-04T13:02:29;96107.38;;;20.66;45.78
39363;BME280;25088;43.238;23.110;2022-11-04T13:07:32;96111.31;;;20.39;46.71
39363;BME280;25088;43.238;23.110;2022-11-04T13:10:05;96087.88;;;20.19;46.67
39363;BME280;25088;43.238;23.110;2022-11-04T13:12:38;96109.22;;;20.27;46.73
39363;BME280;25088;43.238;23.110;2022-11-04T13:15:15;96107.59;;;20.18;46.90
39363;BME280;25088;43.238;23.110;2022-11-04T13:17:42;96105.66;;;20.09;47.34
39363;BME280;25088;43.238;23.110;2022-11-04T13:20:13;96120.97;;;20.07;47.56
39363;BME280;25088;43.238;23.110;2022-11-04T13:22:44;96101.41;;;19.95;47.75
39363;BME280;25088;43.238;23.110;2022-11-04T13:25:39;96111.84;;;19.89;47.99
39363;BME280;25088;43.238;23.110;2022-11-04T13:28:17;96102.88;;;19.83;48.32
39363;BME280;25088;43.238;23.110;2022-11-04T13:31:04;96098.63;;;19.77;48.38
39363;BME280;25088;43.238;23.110;2022-11-04T13:39:16;96095.22;;;19.98;47.87
39363;BME280;25088;43.238;23.110;2022-11-04T13:44:26;96078.41;;;20.03;47.89
39363;BME280;25088;43.238;23.110;2022-11-04T13:46:55;96084.00;;;19.94;47.83
39363;BME280;25088;43.238;23.110;2022-11-04T13:49:28;96061.00;;;19.85;47.87
39363;BME280;25088;43.238;23.110;2022-11-04T13:52:10;96082.69;;;20.09;48.19
39363;BME280;25088;43.238;23.110;2022-11-04T13:54:45;96070.94;;;19.95;47.66
39363;BME280;25088;43.238;23.110;2022-11-04T13:57:29;96076.09;;;20.31;47.24
39363;BME280;25088;43.238;23.110;2022-11-04T14:02:48;96072.75;;;21.10;45.29
39363;BME280;25088;43.238;23.110;2022-11-04T14:10:45;96068.66;;;20.14;47.57
39363;BME280;25088;43.238;23.110;2022-11-04T14:18:47;96052.16;;;19.57;49.11
39363;BME280;25088;43.238;23.110;2022-11-04T14:21:20;96047.75;;;19.38;50.40
39363;BME280;25088;43.238;23.110;2022-11-04T14:23:59;96054.41;;;19.20;50.97
39363;BME280;25088;43.238;23.110;2022-11-04T14:26:45;96046.25;;;19.06;51.72
39363;BME280;25088;43.238;23.110;2022-11-04T14:29:23;96037.34;;;18.70;52.99
39363;BME280;25088;43.238;23.110;2022-11-04T14:31:51;96033.75;;;18.69;53.35
39363;BME280;25088;43.238;23.110;2022-11-04T14:34:26;96030.28;;;18.55;53.98
39363;BME280;25088;43.238;23.110;2022-11-04T14:36:57;96033.44;;;18.71;53.51
39363;BME280;25088;43.238;23.110;2022-11-04T14:39:28;96036.69;;;18.73;54.44
39363;BME280;25088;43.238;23.110;2022-11-04T14:42:01;96032.56;;;18.62;55.56
39363;BME280;25088;43.238;23.110;2022-11-04T14:44:34;96036.91;;;18.54;54.53
39363;BME280;25088;43.238;23.110;2022-11-04T14:47:01;96027.94;;;18.48;55.19
39363;BME280;25088;43.238;23.110;2022-11-04T14:49:59;96023.75;;;18.51;54.82
39363;BME280;25088;43.238;23.110;2022-11-04T14:52:34;96042.69;;;18.35;53.05
39363;BME280;25088;43.238;23.110;2022-11-04T14:57:40;96041.72;;;18.08;54.68
39363;BME280;25088;43.238;23.110;2022-11-04T15:05:36;96032.28;;;18.09;54.83
39363;BME280;25088;43.238;23.110;2022-11-04T15:08:24;96027.91;;;18.08;57.20
39363;BME280;25088;43.238;23.110;2022-11-04T15:10:51;96032.06;;;17.97;55.39
39363;BME280;25088;43.238;23.110;2022-11-04T15:13:19;96029.31;;;17.97;56.65
39363;BME280;25088;43.238;23.110;2022-11-04T15:15:45;96040.53;;;17.78;55.80
39363;BME280;25088;43.238;23.110;2022-11-04T15:18:21;96034.09;;;17.69;58.09
39363;BME280;25088;43.238;23.110;2022-11-04T15:20:50;96024.91;;;17.74;58.86
39363;BME280;25088;43.238;23.110;2022-11-04T15:23:31;96029.28;;;17.75;56.29
39363;BME280;25088;43.238;23.110;2022-11-04T15:25:58;96026.50;;;17.52;56.02
39363;BME280;25088;43.238;23.110;2022-11-04T15:28:29;96011.00;;;17.43;56.09
39363;BME280;25088;43.238;23.110;2022-11-04T15:33:44;96029.97;;;17.22;57.42
39363;BME280;25088;43.238;23.110;2022-11-04T15:36:25;96040.00;;;17.04;57.92
39363;BME280;25088;43.238;23.110;2022-11-04T15:41:38;96013.41;;;16.72;58.39